Time;durP1;ratioP1;P1;durP2;ratioP2;P2;SDS_P1;SDS_P2;PMS_P1;PMS_P2;Temp;Humidity;BMP_temperature;BMP_pressure;BME280_temperature;BME280_humidity;BME280_pressure;Samples;Min_cycle;Max_cycle;Signal;HPM_P1;HPM_P2
2022/10/09 00:01:20;;;;;;;25.80;13.72;;;;;;;9.58;87.95;98069.94;1724356;82;21075;-75
2022/10/09 00:03:51;;;;;;;21.73;13.85;;;;;;;9.56;87.65;98068.23;1725003;82;20939;-75
2022/10/09 00:06:25;;;;;;;23.47;13.35;;;;;;;9.55;87.89;98066.50;1729882;82;21016;-75
2022/10/09 00:08:55;;;;;;;18.50;13.15;;;;;;;9.54;88.12;98068.74;1729608;82;20944;-75
2022/10/09 00:11:27;;;;;;;18.17;13.70;;;;;;;9.54;87.83;98067.42;1715266;82;20996;-75
2022/10/09 00:13:56;;;;;;;18.60;12.73;;;;;;;9.51;87.40;98059.95;1718105;83;21043;-75
2022/10/09 00:16:24;;;;;;;20.60;13.30;;;;;;;9.49;87.52;98059.13;1727664;83;20968;-75
2022/10/09 00:18:52;;;;;;;20.55;13.70;;;;;;;9.47;87.27;98056.96;1727653;83;20983;-75
2022/10/09 00:21:26;;;;;;;18.80;13.05;;;;;;;9.46;87.36;98050.37;1747649;82;21051;-75
2022/10/09 00:23:57;;;;;;;21.25;12.37;;;;;;;9.43;87.39;98048.67;1744320;82;20977;-75
2022/10/09 00:26:27;;;;;;;20.50;12.93;;;;;;;9.40;87.33;98047.45;1706562;83;21024;-76
2022/10/09 00:28:54;;;;;;;18.10;12.65;;;;;;;9.40;87.43;98050.09;1743539;82;20941;-76
2022/10/09 00:31:21;;;;;;;24.37;13.93;;;;;;;9.42;87.62;98049.59;1750751;82;21402;-75
2022/10/09 00:33:51;;;;;;;19.62;12.70;;;;;;;9.44;87.55;98053.53;1741276;82;21144;-76
2022/10/09 00:36:22;;;;;;;19.20;11.73;;;;;;;9.44;87.62;98046.91;1707768;83;21031;-76
2022/10/09 00:38:52;;;;;;;22.10;11.88;;;;;;;9.46;88.61;98053.02;1727416;83;21044;-75
2022/10/09 00:41:27;;;;;;;16.57;10.98;;;;;;;9.46;88.21;98045.09;1735440;82;21019;-75
2022/10/09 00:43:58;;;;;;;17.95;10.60;;;;;;;9.49;88.15;98047.23;1727741;83;20972;-76
2022/10/09 00:46:41;;;;;;;20.40;10.70;;;;;;;9.53;88.33;98046.69;1729660;82;20952;-75
2022/10/09 00:49:27;;;;;;;17.65;10.70;;;;;;;9.54;88.09;98049.75;1755575;82;20953;-75
2022/10/09 00:51:59;;;;;;;13.10;9.78;;;;;;;9.58;88.20;98047.89;1755698;82;21016;-75
2022/10/09 00:54:29;;;;;;;17.27;10.45;;;;;;;9.61;88.06;98048.70;1739522;81;20992;-76
2022/10/09 00:56:57;;;;;;;14.68;9.83;;;;;;;9.60;87.88;98047.41;1727804;83;21043;-76
2022/10/09 00:59:25;;;;;;;12.03;8.75;;;;;;;9.58;87.93;98050.09;1712178;82;21409;-75
2022/10/09 01:01:53;;;;;;;12.95;8.85;;;;;;;9.59;88.72;98050.50;1751877;82;21455;-76
2022/10/09 01:04:21;;;;;;;12.65;8.38;;;;;;;9.62;88.49;98048.23;1727792;83;21461;-76
2022/10/09 01:07:08;;;;;;;14.18;9.55;;;;;;;9.65;88.90;98050.81;1729554;82;20992;-76
2022/10/09 01:10:01;;;;;;;14.93;9.33;;;;;;;9.67;88.96;98048.14;1741527;82;20972;-76
2022/10/09 01:13:14;;;;;;;15.05;10.10;;;;;;;9.68;88.89;98051.19;1705476;83;20969;-76
2022/10/09 01:15:55;;;;;;;13.88;9.80;;;;;;;9.60;88.73;98058.00;1740674;82;21023;-76
2022/10/09 01:18:29;;;;;;;14.03;9.90;;;;;;;9.53;88.86;98049.78;1750660;81;21055;-76
2022/10/09 01:21:04;;;;;;;13.98;9.55;;;;;;;9.48;88.76;98052.55;1754158;82;21122;-76
2022/10/09 01:23:54;;;;;;;16.73;10.88;;;;;;;9.43;88.74;98043.39;1715713;82;21511;-76
2022/10/09 01:26:36;;;;;;;15.80;10.15;;;;;;;9.36;88.62;98046.66;1754586;82;20992;-76
2022/10/09 01:29:06;;;;;;;13.53;9.98;;;;;;;9.27;88.62;98058.77;1753988;82;20964;-76
2022/10/09 01:31:38;;;;;;;18.65;10.13;;;;;;;9.17;88.57;98059.42;1737752;82;21008;-77
2022/10/09 01:34:09;;;;;;;13.65;10.20;;;;;;;9.11;88.43;98061.75;1723156;82;21035;-76
2022/10/09 01:36:37;;;;;;;16.55;10.53;;;;;;;9.06;88.54;98060.98;1736062;82;21525;-77
2022/10/09 01:39:07;;;;;;;15.70;9.55;;;;;;;9.05;88.78;98062.36;1739189;82;21015;-76
2022/10/09 01:41:34;;;;;;;19.07;10.80;;;;;;;9.02;88.66;98068.59;1709907;82;20992;-76
2022/10/09 01:44:00;;;;;;;13.50;9.53;;;;;;;8.99;88.45;98064.68;1740964;81;20995;-76
2022/10/09 01:46:31;;;;;;;19.35;10.85;;;;;;;8.97;88.49;98058.57;1695240;85;21052;-76
2022/10/09 01:49:18;;;;;;;14.83;9.63;;;;;;;8.93;89.19;98055.09;1684146;84;20969;-76
2022/10/09 01:52:08;;;;;;;17.95;10.35;;;;;;;8.92;89.39;98048.52;1695517;84;21043;-76
2022/10/09 01:54:43;;;;;;;17.50;9.38;;;;;;;8.91;89.56;98058.68;1698464;84;20945;-76
2022/10/09 01:57:13;;;;;;;18.60;10.13;;;;;;;8.90;89.17;98054.30;1704094;84;21044;-76
2022/10/09 01:59:45;;;;;;;15.90;10.30;;;;;;;8.90;89.63;98058.27;1704221;84;20964;-76
2022/10/09 02:02:11;;;;;;;15.75;10.72;;;;;;;8.91;90.52;98063.53;1703312;84;21430;-76
2022/10/09 02:04:41;;;;;;;13.13;9.15;;;;;;;8.92;90.14;98063.06;1705333;84;20925;-76
2022/10/09 02:07:09;;;;;;;14.80;10.25;;;;;;;8.93;90.23;98064.83;1702373;84;20950;-76
2022/10/09 02:09:39;;;;;;;14.30;9.80;;;;;;;8.94;90.37;98064.80;1706187;83;21016;-76
2022/10/09 02:12:09;;;;;;;17.95;9.70;;;;;;;9.00;90.32;98061.59;1673837;86;20965;-76
2022/10/09 02:14:38;;;;;;;15.15;10.40;;;;;;;9.04;90.58;98063.24;1682921;84;20973;-76
2022/10/09 02:17:16;;;;;;;14.75;9.58;;;;;;;9.07;90.15;98065.83;1712628;84;21412;-76
2022/10/09 02:19:50;;;;;;;15.13;9.33;;;;;;;9.13;90.38;98066.16;1708665;84;20963;-76
2022/10/09 02:22:27;;;;;;;19.82;10.23;;;;;;;9.18;90.06;98062.95;1698395;83;21052;-76
2022/10/09 02:25:02;;;;;;;13.03;9.40;;;;;;;9.25;89.83;98073.79;1692742;84;21044;-77
2022/10/09 02:27:31;;;;;;;13.78;8.70;;;;;;;9.28;90.13;98070.20;1701061;83;21000;-76
2022/10/09 02:29:59;;;;;;;14.85;9.80;;;;;;;9.33;89.99;98073.61;1698348;84;21410;-76
2022/10/09 02:32:31;;;;;;;15.23;9.23;;;;;;;9.36;90.12;98075.76;1700085;84;21028;-76
2022/10/09 02:34:57;;;;;;;15.03;9.23;;;;;;;9.38;89.52;98073.05;1708342;83;21355;-76
2022/10/09 02:37:24;;;;;;;12.50;8.28;;;;;;;9.40;90.68;98063.32;1723224;83;21019;-76
2022/10/09 02:39:51;;;;;;;9.70;7.78;;;;;;;9.43;90.26;98062.38;1714669;83;21028;-76
2022/10/09 02:42:18;;;;;;;11.78;8.48;;;;;;;9.48;90.33;98064.45;1714457;83;20957;-76
2022/10/09 02:44:44;;;;;;;12.10;8.03;;;;;;;9.48;90.49;98060.48;1671969;86;20971;-76
2022/10/09 02:47:13;;;;;;;14.50;8.10;;;;;;;9.48;90.27;98063.98;1706066;83;21441;-76
2022/10/09 02:49:39;;;;;;;14.58;8.60;;;;;;;9.50;90.23;98060.87;1724649;82;20992;-76
2022/10/09 02:52:07;;;;;;;12.18;8.15;;;;;;;9.48;90.29;98056.05;1735085;82;21015;-76
2022/10/09 02:54:34;;;;;;;12.03;8.20;;;;;;;9.45;90.27;98063.20;1726200;83;20972;-76
2022/10/09 02:57:00;;;;;;;14.40;8.55;;;;;;;9.45;90.27;98065.84;1726254;83;21003;-76
2022/10/09 02:59:27;;;;;;;10.00;7.50;;;;;;;9.42;90.27;98063.29;1726296;82;21019;-76
2022/10/09 03:01:54;;;;;;;18.32;8.95;;;;;;;9.40;90.47;98062.44;1743909;82;21405;-76
2022/10/09 03:04:21;;;;;;;14.58;7.83;;;;;;;9.37;90.01;98067.34;1732416;82;21022;-76
2022/10/09 03:06:47;;;;;;;9.85;7.17;;;;;;;9.40;90.07;98059.80;1726116;83;20940;-75
2022/10/09 03:09:14;;;;;;;13.28;7.60;;;;;;;9.38;90.43;98073.93;1735767;82;20972;-75
2022/10/09 03:11:44;;;;;;;9.95;7.95;;;;;;;9.36;90.28;98077.52;1731212;82;20995;-76
2022/10/09 03:14:10;;;;;;;10.68;8.33;;;;;;;9.30;90.04;98073.23;1743976;82;21079;-75
2022/10/09 03:16:37;;;;;;;13.83;8.65;;;;;;;9.29;89.97;98079.87;1729891;82;21457;-75
2022/10/09 03:19:04;;;;;;;14.83;8.38;;;;;;;9.21;89.67;98083.58;1723863;81;20940;-75
2022/10/09 03:21:32;;;;;;;20.02;10.08;;;;;;;9.14;89.51;98082.43;1738389;82;21460;-75
2022/10/09 03:23:58;;;;;;;15.08;8.35;;;;;;;9.03;89.30;98084.86;1709927;82;21028;-75
2022/10/09 03:26:27;;;;;;;15.10;9.58;;;;;;;8.93;89.11;98087.29;1743853;82;20959;-75
2022/10/09 03:28:58;;;;;;;14.75;9.65;;;;;;;8.82;89.14;98093.67;1730580;82;20976;-75
2022/10/09 03:31:26;;;;;;;16.62;9.10;;;;;;;8.74;89.13;98090.75;1726154;83;20924;-75
2022/10/09 03:33:54;;;;;;;14.00;9.43;;;;;;;8.67;89.15;98088.69;1724987;82;21063;-75
2022/10/09 03:36:22;;;;;;;11.33;8.70;;;;;;;8.61;89.29;98095.42;1705739;83;21396;-75
2022/10/09 03:38:48;;;;;;;15.83;9.25;;;;;;;8.55;88.99;98088.47;1725813;83;20991;-75
2022/10/09 03:41:17;;;;;;;14.10;9.40;;;;;;;8.48;88.89;98095.64;1735799;82;20988;-75
2022/10/09 03:43:46;;;;;;;13.98;8.95;;;;;;;8.44;89.08;98097.45;1725928;83;21023;-74
2022/10/09 03:46:15;;;;;;;13.98;8.75;;;;;;;8.40;89.07;98090.95;1725800;83;20928;-74
2022/10/09 03:48:41;;;;;;;13.60;8.25;;;;;;;8.36;88.95;98091.91;1726770;82;21022;-74
2022/10/09 03:51:09;;;;;;;13.13;9.08;;;;;;;8.31;89.04;98091.53;1740920;82;21047;-74
2022/10/09 03:53:36;;;;;;;17.05;8.50;;;;;;;8.27;88.81;98092.48;1728541;83;20995;-74
2022/10/09 03:56:02;;;;;;;13.20;8.50;;;;;;;8.26;89.45;98092.55;1728775;82;20975;-74
2022/10/09 03:58:29;;;;;;;15.00;8.75;;;;;;;8.21;88.66;98089.97;1740683;82;21076;-75
2022/10/09 04:00:57;;;;;;;12.85;9.23;;;;;;;8.20;89.11;98086.91;1728535;82;21536;-75
2022/10/09 04:03:26;;;;;;;12.53;9.13;;;;;;;8.21;88.85;98083.84;1746456;82;21386;-76
2022/10/09 04:05:52;;;;;;;16.02;10.23;;;;;;;8.15;88.60;98084.81;1750970;82;21397;-75
2022/10/09 04:08:18;;;;;;;14.70;8.98;;;;;;;8.11;88.81;98091.04;1710526;82;20941;-75
2022/10/09 04:10:45;;;;;;;13.32;9.25;;;;;;;8.11;89.13;98089.28;1744422;82;20944;-75
2022/10/09 04:13:11;;;;;;;13.18;8.45;;;;;;;8.09;88.57;98088.89;1731871;82;21548;-75
2022/10/09 04:15:38;;;;;;;11.10;8.80;;;;;;;8.06;88.97;98094.63;1731778;82;21048;-75
2022/10/09 04:18:05;;;;;;;12.85;8.28;;;;;;;8.08;89.47;98095.05;1728351;82;20961;-75
2022/10/09 04:20:33;;;;;;;11.43;8.73;;;;;;;8.09;89.37;98101.63;1734099;82;21398;-75
2022/10/09 04:23:00;;;;;;;12.37;8.50;;;;;;;8.10;90.92;98093.27;1718186;82;20976;-75
2022/10/09 04:25:28;;;;;;;11.33;8.15;;;;;;;8.16;90.65;98095.78;1720128;83;20991;-75
2022/10/09 04:27:56;;;;;;;13.95;8.50;;;;;;;8.20;90.73;98101.44;1728777;83;21026;-74
2022/10/09 04:30:22;;;;;;;12.28;9.03;;;;;;;8.20;91.62;98105.40;1728738;82;20972;-74
2022/10/09 04:32:49;;;;;;;11.10;7.80;;;;;;;8.23;90.26;98103.15;1742782;82;21502;-74
2022/10/09 04:35:16;;;;;;;14.15;8.73;;;;;;;8.19;89.73;98099.23;1744681;82;21315;-74
2022/10/09 04:37:42;;;;;;;11.93;8.00;;;;;;;8.18;89.58;98103.25;1739079;82;20967;-74
2022/10/09 04:40:09;;;;;;;10.95;8.70;;;;;;;8.15;89.59;98101.97;1715830;82;20965;-73
2022/10/09 04:42:36;;;;;;;13.78;8.30;;;;;;;8.18;90.92;98112.48;1742186;82;21031;-73
2022/10/09 04:45:09;;;;;;;13.58;8.48;;;;;;;8.25;90.07;98115.42;1712353;82;20991;-73
2022/10/09 04:47:36;;;;;;;16.42;8.40;;;;;;;8.30;90.02;98116.64;1726569;82;20978;-73
2022/10/09 04:50:04;;;;;;;18.35;7.90;;;;;;;8.35;90.35;98109.98;1691758;82;20996;-73
2022/10/09 04:52:31;;;;;;;10.95;8.00;;;;;;;8.42;90.31;98112.47;1734737;82;21180;-75
2022/10/09 04:54:57;;;;;;;10.25;7.55;;;;;;;8.50;90.34;98108.80;1709888;82;21083;-73
2022/10/09 04:57:24;;;;;;;10.13;7.42;;;;;;;8.62;90.43;98111.69;1735619;81;20944;-73
2022/10/09 04:59:50;;;;;;;10.95;7.05;;;;;;;8.71;91.03;98107.10;1732609;83;20974;-74
2022/10/09 05:02:18;;;;;;;9.85;6.90;;;;;;;8.81;90.74;98117.48;1750900;81;21452;-74
2022/10/09 05:04:46;;;;;;;13.05;6.85;;;;;;;8.92;90.82;98110.63;1733656;81;21476;-73
2022/10/09 05:07:12;;;;;;;9.60;6.53;;;;;;;9.02;90.64;98113.53;1734421;83;20950;-72
2022/10/09 05:09:39;;;;;;;8.68;6.67;;;;;;;9.16;90.61;98108.38;1733994;81;20988;-72
2022/10/09 05:12:05;;;;;;;8.50;6.37;;;;;;;9.23;90.50;98119.25;1734289;81;20994;-73
2022/10/09 05:14:32;;;;;;;10.05;6.33;;;;;;;9.31;90.38;98112.02;1733645;83;21027;-73
2022/10/09 05:17:03;;;;;;;9.98;7.55;;;;;;;9.36;90.12;98114.11;1734726;81;20982;-73
2022/10/09 05:19:27;;;;;;;8.58;6.40;;;;;;;9.42;89.93;98114.88;1734284;81;20950;-74
2022/10/09 05:21:55;;;;;;;11.50;6.83;;;;;;;9.50;89.92;98111.58;1735165;81;20951;-74
2022/10/09 05:24:22;;;;;;;10.03;6.70;;;;;;;9.57;89.70;98109.22;1730475;81;21014;-74
2022/10/09 05:26:48;;;;;;;10.03;6.42;;;;;;;9.66;89.59;98104.59;1734764;81;21019;-74
2022/10/09 05:29:16;;;;;;;12.80;5.95;;;;;;;9.71;89.45;98105.38;1733429;81;21069;-74
2022/10/09 05:31:44;;;;;;;9.90;6.90;;;;;;;9.75;89.31;98097.31;1734387;81;20984;-75
2022/10/09 05:34:12;;;;;;;10.25;6.47;;;;;;;9.80;89.21;98106.45;1740364;81;21075;-74
2022/10/09 05:36:38;;;;;;;9.70;6.60;;;;;;;9.85;89.13;98108.53;1740176;81;20976;-74
2022/10/09 05:39:05;;;;;;;17.65;7.28;;;;;;;9.91;89.15;98116.78;1732687;81;20976;-75
2022/10/09 05:41:31;;;;;;;10.18;7.12;;;;;;;9.96;88.76;98117.53;1734549;83;21008;-75
2022/10/09 05:44:03;;;;;;;10.80;6.67;;;;;;;9.98;88.61;98117.06;1733471;81;20972;-75
2022/10/09 05:46:30;;;;;;;10.30;6.97;;;;;;;9.99;88.48;98121.44;1733162;83;20942;-75
2022/10/09 05:49:00;;;;;;;10.95;6.60;;;;;;;9.98;88.00;98128.97;1736465;81;21059;-75
2022/10/09 05:51:34;;;;;;;9.65;6.50;;;;;;;9.95;88.09;98130.36;1705065;84;20972;-75
2022/10/09 05:54:02;;;;;;;10.70;6.60;;;;;;;9.94;87.94;98135.69;1702931;84;21014;-75
2022/10/09 05:56:34;;;;;;;9.58;7.62;;;;;;;9.90;88.03;98133.58;1703869;83;21425;-75
2022/10/09 05:59:08;;;;;;;12.35;7.33;;;;;;;9.90;87.79;98136.23;1705810;83;21473;-75
2022/10/09 06:01:42;;;;;;;9.45;7.12;;;;;;;9.87;87.78;98137.17;1703840;83;21048;-75
2022/10/09 06:04:17;;;;;;;10.78;6.40;;;;;;;9.85;87.91;98153.53;1703599;84;21007;-76
2022/10/09 06:06:46;;;;;;;9.73;7.33;;;;;;;9.85;87.84;98150.03;1703937;83;21003;-75
2022/10/09 06:09:17;;;;;;;11.78;7.90;;;;;;;9.87;87.80;98149.52;1703756;84;21019;-75
2022/10/09 06:11:44;;;;;;;11.83;7.55;;;;;;;9.89;87.71;98148.58;1705515;83;20992;-76
2022/10/09 06:14:12;;;;;;;10.00;7.53;;;;;;;9.94;87.70;98167.02;1703293;83;21011;-75
2022/10/09 06:16:42;;;;;;;11.97;7.28;;;;;;;9.95;88.01;98164.78;1703625;83;20964;-74
2022/10/09 06:19:14;;;;;;;12.68;7.40;;;;;;;9.97;87.86;98174.87;1703610;84;20952;-74
2022/10/09 06:21:43;;;;;;;11.65;7.65;;;;;;;9.98;87.85;98173.98;1704854;83;21048;-74
2022/10/09 06:24:21;;;;;;;11.18;7.95;;;;;;;10.01;88.03;98184.48;1684867;84;21079;-73
2022/10/09 06:26:48;;;;;;;10.50;6.78;;;;;;;10.02;87.78;98172.13;1694153;83;20968;-73
2022/10/09 06:29:14;;;;;;;11.28;7.40;;;;;;;10.04;87.67;98184.86;1705906;84;21446;-73
2022/10/09 06:31:41;;;;;;;11.63;7.45;;;;;;;10.06;88.04;98182.18;1718187;83;21115;-75
2022/10/09 06:34:09;;;;;;;10.25;7.53;;;;;;;10.08;87.63;98196.27;1705806;83;21008;-76
2022/10/09 06:36:36;;;;;;;12.45;7.40;;;;;;;10.10;88.05;98201.06;1704896;84;21051;-76
2022/10/09 06:39:07;;;;;;;9.50;7.92;;;;;;;10.13;87.71;98202.33;1704492;83;21398;-76
2022/10/09 06:41:35;;;;;;;10.70;7.60;;;;;;;10.19;87.70;98195.98;1704815;83;21446;-76
2022/10/09 06:44:11;;;;;;;11.10;7.95;;;;;;;10.23;87.60;98192.36;1701728;83;20960;-75
2022/10/09 06:46:40;;;;;;;9.08;7.47;;;;;;;10.31;87.78;98194.37;1703273;83;20975;-77
2022/10/09 06:49:09;;;;;;;11.08;7.45;;;;;;;10.40;87.76;98198.11;1705978;83;21004;-76
2022/10/09 06:51:37;;;;;;;13.30;7.42;;;;;;;10.53;87.42;98192.51;1725850;82;21417;-80
2022/10/09 06:54:12;;;;;;;13.03;7.97;;;;;;;10.62;87.46;98192.71;1724226;82;21121;-76
2022/10/09 06:56:39;;;;;;;10.28;7.97;;;;;;;10.75;87.39;98193.28;1734353;82;20976;-76
2022/10/09 06:59:07;;;;;;;9.53;7.33;;;;;;;10.89;87.35;98195.09;1727697;82;21011;-77
2022/10/09 07:01:35;;;;;;;11.50;6.62;;;;;;;11.01;87.39;98185.05;1728421;82;20956;-77
2022/10/09 07:04:06;;;;;;;11.55;6.78;;;;;;;11.14;87.11;98186.45;1699465;83;22216;-76
2022/10/09 07:06:43;;;;;;;13.90;7.65;;;;;;;11.29;87.08;98178.95;1729970;82;21039;-79
2022/10/09 07:09:14;;;;;;;10.03;6.80;;;;;;;11.42;87.03;98185.61;1721884;82;21023;-77
2022/10/09 07:11:44;;;;;;;10.93;7.00;;;;;;;11.56;86.36;98189.64;1731181;82;20989;-73
2022/10/09 07:14:14;;;;;;;10.95;6.80;;;;;;;11.69;86.59;98180.39;1747305;82;21510;-76
2022/10/09 07:16:44;;;;;;;12.15;7.78;;;;;;;11.81;86.37;98184.45;1746905;82;21059;-76
2022/10/09 07:19:12;;;;;;;10.98;8.15;;;;;;;11.93;86.27;98185.85;1747194;82;21138;-73
2022/10/09 07:21:43;;;;;;;12.23;7.78;;;;;;;12.03;86.11;98192.20;1733583;82;21020;-73
2022/10/09 07:24:11;;;;;;;10.08;7.30;;;;;;;12.14;86.07;98183.44;1706828;82;21011;-73
2022/10/09 07:26:42;;;;;;;10.30;8.08;;;;;;;12.26;85.83;98188.81;1725652;83;21027;-73
2022/10/09 07:29:12;;;;;;;9.98;7.75;;;;;;;12.34;85.75;98183.23;1725851;83;20995;-73
2022/10/09 07:31:39;;;;;;;9.35;8.03;;;;;;;12.43;85.70;98188.69;1734253;82;21008;-74
2022/10/09 07:34:05;;;;;;;10.05;7.53;;;;;;;12.51;85.39;98184.84;1731061;82;21449;-74
2022/10/09 07:36:32;;;;;;;12.07;8.10;;;;;;;12.62;85.35;98185.80;1736975;82;21023;-74
2022/10/09 07:38:59;;;;;;;12.05;8.13;;;;;;;12.72;84.95;98181.50;1738051;82;21015;-75
2022/10/09 07:41:28;;;;;;;9.43;7.33;;;;;;;12.80;84.53;98175.45;1726227;82;20956;-75
2022/10/09 07:43:55;;;;;;;11.18;7.35;;;;;;;12.88;84.56;98182.67;1737232;82;21357;-76
2022/10/09 07:46:24;;;;;;;9.85;7.12;;;;;;;12.97;84.41;98185.48;1727281;82;21003;-75
2022/10/09 07:48:51;;;;;;;12.00;7.53;;;;;;;13.07;84.13;98182.01;1726160;83;21089;-73
2022/10/09 07:51:25;;;;;;;8.53;7.05;;;;;;;13.19;83.97;98184.23;1722368;83;20980;-75
2022/10/09 07:53:52;;;;;;;;;;;;;;;13.31;83.68;98178.91;1728330;83;21098;-73
2022/10/09 07:56:24;;;;;;;10.78;7.17;;;;;;;13.44;83.74;98175.31;1726072;83;20083;-73
2022/10/09 07:58:55;;;;;;;9.83;7.40;;;;;;;13.55;83.34;98179.39;1734515;82;20982;-74
2022/10/09 08:01:26;;;;;;;9.23;6.90;;;;;;;13.67;82.67;98180.22;1741640;82;21035;-74
2022/10/09 08:03:54;;;;;;;10.25;7.58;;;;;;;13.79;82.28;98189.53;1726193;83;20975;-74
2022/10/09 08:06:21;;;;;;;12.58;6.92;;;;;;;13.92;81.61;98187.72;1738484;82;20952;-73
2022/10/09 08:08:54;;;;;;;12.13;7.08;;;;;;;14.07;81.40;98184.92;1726131;83;21004;-73
2022/10/09 08:11:23;;;;;;;9.80;6.85;;;;;;;14.20;81.41;98178.61;1726112;83;20991;-73
2022/10/09 08:13:51;;;;;;;9.90;6.70;;;;;;;14.33;81.22;98175.81;1726037;83;21014;-74
2022/10/09 08:16:19;;;;;;;13.03;7.25;;;;;;;14.45;80.65;98184.24;1726098;83;20984;-73
2022/10/09 08:18:47;;;;;;;13.78;7.00;;;;;;;14.56;80.20;98179.31;1726140;83;20964;-73
2022/10/09 08:21:17;;;;;;;10.18;6.95;;;;;;;14.65;79.75;98176.25;1726004;82;21012;-73
2022/10/09 08:23:45;;;;;;;10.20;6.87;;;;;;;14.74;77.62;98173.64;1704110;83;21377;-74
2022/10/09 08:26:18;;;;;;;12.00;6.42;;;;;;;14.85;77.43;98180.33;1726209;83;21003;-74
2022/10/09 08:28:51;;;;;;;9.05;6.45;;;;;;;14.96;77.37;98184.75;1726158;83;20944;-74
2022/10/09 08:31:19;;;;;;;8.70;6.17;;;;;;;15.08;77.11;98179.78;1726376;83;20984;-74
2022/10/09 08:33:45;;;;;;;9.50;6.60;;;;;;;15.21;77.37;98176.97;1737541;82;20999;-74
2022/10/09 08:36:16;;;;;;;8.13;6.47;;;;;;;15.29;77.87;98174.78;1731444;82;20979;-74
2022/10/09 08:38:42;;;;;;;11.50;6.15;;;;;;;15.37;77.52;98181.11;1733881;82;20928;-74
2022/10/09 08:41:34;;;;;;;9.63;6.70;;;;;;;15.47;77.76;98178.02;1738569;82;21003;-74
2022/10/09 08:44:40;;;;;;;6.67;5.97;;;;;;;15.53;77.67;98179.08;1738167;82;20979;-74
2022/10/09 08:47:14;;;;;;;7.30;5.45;;;;;;;15.60;77.53;98173.83;1743939;82;21007;-74
2022/10/09 08:49:54;;;;;;;7.25;5.65;;;;;;;15.72;76.11;98175.05;1740746;82;21008;-74
2022/10/09 08:52:55;;;;;;;8.63;5.70;;;;;;;15.88;75.89;98172.52;1731046;83;20991;-74
2022/10/09 08:55:51;;;;;;;7.15;5.62;;;;;;;16.03;75.95;98172.25;1717114;83;21002;-74
2022/10/09 08:58:22;;;;;;;7.83;5.65;;;;;;;16.20;75.76;98178.59;1753016;82;21043;-74
2022/10/09 09:01:20;;;;;;;8.63;5.55;;;;;;;16.39;75.06;98177.68;1741229;82;20991;-74
2022/10/09 09:04:28;;;;;;;6.87;5.78;;;;;;;16.62;74.97;98181.36;1741684;82;21059;-74
2022/10/09 09:07:19;;;;;;;10.40;6.95;;;;;;;16.91;73.54;98181.27;1712850;83;20971;-74
2022/10/09 09:09:58;;;;;;;10.70;5.65;;;;;;;17.06;72.54;98180.98;1733717;83;21082;-74
2022/10/09 09:12:35;;;;;;;8.00;5.47;;;;;;;17.17;71.55;98185.27;1733697;83;21003;-75
2022/10/09 09:15:43;;;;;;;9.45;5.70;;;;;;;17.23;70.18;98186.77;1733787;83;21126;-73
2022/10/09 09:18:45;;;;;;;7.78;5.78;;;;;;;17.24;70.11;98189.34;1733375;82;21027;-74
2022/10/09 09:21:48;;;;;;;7.83;5.80;;;;;;;17.21;66.10;98189.98;1733184;83;21125;-74
2022/10/09 09:24:22;;;;;;;7.22;5.70;;;;;;;17.22;68.46;98191.70;1711981;83;20999;-74
2022/10/09 09:26:54;;;;;;;7.40;6.12;;;;;;;17.28;67.05;98192.25;1733668;83;20995;-74
2022/10/09 09:29:23;;;;;;;8.65;5.90;;;;;;;17.33;66.73;98187.12;1740650;82;21030;-74
2022/10/09 09:31:56;;;;;;;8.28;5.42;;;;;;;17.43;67.84;98197.72;1733671;83;21025;-74
2022/10/09 09:34:36;;;;;;;6.03;5.42;;;;;;;17.55;67.73;98197.53;1733919;83;20951;-75
2022/10/09 09:37:03;;;;;;;7.20;5.25;;;;;;;17.71;67.48;98195.33;1733775;83;21022;-75
2022/10/09 09:39:33;;;;;;;9.30;5.47;;;;;;;17.83;65.96;98194.66;1737744;82;20987;-75
2022/10/09 09:42:16;;;;;;;6.65;5.50;;;;;;;18.02;66.72;98184.23;1743348;82;21031;-74
2022/10/09 09:45:06;;;;;;;9.50;5.60;;;;;;;18.17;66.05;98199.94;1748198;82;21377;-75
2022/10/09 09:47:46;;;;;;;6.12;5.50;;;;;;;18.23;61.79;98203.59;1733684;83;22101;-74
2022/10/09 09:50:13;;;;;;;8.00;6.17;;;;;;;18.21;61.98;98201.50;1731793;83;21056;-75
2022/10/09 09:52:43;;;;;;;6.67;5.42;;;;;;;18.22;61.04;98205.91;1729378;83;20975;-75
2022/10/09 09:55:28;;;;;;;12.70;9.48;;;;;;;18.18;60.64;98210.59;1737288;82;20995;-74
2022/10/09 09:58:05;;;;;;;7.50;5.85;;;;;;;18.16;61.02;98204.92;1736532;81;20995;-75
2022/10/09 10:00:33;;;;;;;9.18;6.62;;;;;;;18.09;61.55;98207.58;1739505;82;21030;-75
2022/10/09 10:03:13;;;;;;;7.17;6.08;;;;;;;18.07;62.24;98211.19;1732455;82;21018;-75
2022/10/09 10:05:44;;;;;;;8.00;6.10;;;;;;;18.04;62.63;98215.38;1738744;82;21003;-74
2022/10/09 10:08:28;;;;;;;11.40;6.85;;;;;;;18.00;62.59;98200.88;1743640;82;21091;-74
2022/10/09 10:10:58;;;;;;;10.15;6.60;;;;;;;17.99;61.29;98210.75;1740029;82;21007;-74
2022/10/09 10:13:37;;;;;;;9.25;6.45;;;;;;;18.03;62.17;98204.73;1733325;82;20940;-75
2022/10/09 10:16:06;;;;;;;8.55;6.20;;;;;;;18.18;62.93;98202.54;1731197;83;20959;-75
2022/10/09 10:18:40;;;;;;;8.55;5.78;;;;;;;18.27;60.11;98211.86;1730971;83;20967;-75
2022/10/09 10:21:17;;;;;;;7.53;6.08;;;;;;;18.19;58.83;98205.60;1733120;82;21007;-75
2022/10/09 10:24:00;;;;;;;9.83;5.87;;;;;;;18.22;59.35;98199.20;1719777;83;21000;-75
2022/10/09 10:26:51;;;;;;;11.50;7.05;;;;;;;18.51;60.69;98196.63;1731039;83;20994;-75
2022/10/09 10:29:37;;;;;;;7.90;5.85;;;;;;;20.20;56.23;98184.96;1731167;83;20979;-75
2022/10/09 10:32:36;;;;;;;7.47;5.30;;;;;;;20.20;56.23;98184.96;1731226;83;21014;-75
2022/10/09 10:35:23;;;;;;;7.08;5.08;;;;;;;20.40;54.86;98176.91;1730984;83;20995;-75
2022/10/09 10:38:13;;;;;;;7.28;4.92;;;;;;;20.79;54.36;98186.41;1731161;83;21007;-75
2022/10/09 10:40:59;;;;;;;7.35;5.58;;;;;;;21.66;53.83;98177.69;1742400;82;20999;-75
2022/10/09 10:43:43;;;;;;;7.00;5.92;;;;;;;22.78;52.85;98169.95;1735188;82;21457;-75
2022/10/09 10:46:48;;;;;;;8.13;5.92;;;;;;;23.49;47.44;98168.12;1733096;82;21030;-76
2022/10/09 10:49:21;;;;;;;7.72;6.30;;;;;;;23.81;44.61;98167.33;1743607;82;20962;-75
2022/10/09 10:52:25;;;;;;;7.17;5.58;;;;;;;24.63;48.09;98168.69;1726703;82;20965;-75
2022/10/09 10:55:09;;;;;;;7.65;5.40;;;;;;;25.33;43.22;98170.52;1732031;82;21060;-75
2022/10/09 10:57:56;;;;;;;6.45;5.25;;;;;;;25.92;44.33;98166.69;1734881;82;21063;-76
2022/10/09 11:00:26;;;;;;;6.35;5.05;;;;;;;26.41;40.42;98155.06;1738721;82;20980;-75
2022/10/09 11:03:13;;;;;;;7.55;4.90;;;;;;;26.96;41.14;98151.75;1735920;82;21016;-75
2022/10/09 11:06:03;;;;;;;8.88;4.55;;;;;;;27.63;40.09;98140.42;1707796;83;21402;-75
2022/10/09 11:08:53;;;;;;;5.15;4.45;;;;;;;28.01;38.69;98136.25;1741260;81;20968;-75
2022/10/09 11:11:36;;;;;;;4.90;4.50;;;;;;;28.39;38.06;98134.81;1727118;82;21414;-76
2022/10/09 11:14:25;;;;;;;4.97;4.47;;;;;;;28.78;37.71;98139.04;1728111;83;21034;-75
2022/10/09 11:17:21;;;;;;;6.53;4.42;;;;;;;29.31;35.40;98133.09;1732658;81;20992;-76
2022/10/09 11:20:11;;;;;;;5.12;4.62;;;;;;;29.02;36.23;98137.02;1750332;82;21019;-73
2022/10/09 11:23:05;;;;;;;5.72;4.67;;;;;;;29.02;36.15;98134.28;1709820;82;21032;-73
2022/10/09 11:25:52;;;;;;;6.62;4.45;;;;;;;29.72;37.82;98123.42;1688348;85;21032;-75
2022/10/09 11:28:30;;;;;;;8.28;4.67;;;;;;;28.72;33.01;98139.16;1709940;83;21037;-74
2022/10/09 11:31:10;;;;;;;8.23;4.67;;;;;;;27.57;36.87;98135.56;1731240;82;20995;-75
2022/10/09 11:33:46;;;;;;;5.00;4.50;;;;;;;26.89;36.34;98136.97;1728010;83;21016;-75
2022/10/09 11:36:33;;;;;;;7.40;4.67;;;;;;;25.92;38.02;98132.26;1746847;82;21394;-75
2022/10/09 11:39:04;;;;;;;5.10;4.60;;;;;;;25.47;39.11;98128.58;1727987;83;21442;-74
2022/10/09 11:41:33;;;;;;;5.25;4.50;;;;;;;24.93;40.73;98132.83;1727951;83;20988;-74
2022/10/09 11:44:31;;;;;;;5.72;4.60;;;;;;;24.65;40.31;98130.62;1727817;83;21029;-74
2022/10/09 11:47:20;;;;;;;7.08;4.60;;;;;;;24.71;41.00;98131.95;1727997;83;20956;-75
2022/10/09 11:50:25;;;;;;;6.60;4.80;;;;;;;24.54;41.86;98128.86;1726383;83;21052;-75
2022/10/09 11:53:03;;;;;;;5.30;4.80;;;;;;;23.95;42.51;98132.39;1726922;83;21059;-75
2022/10/09 11:55:32;;;;;;;6.92;4.97;;;;;;;23.48;42.92;98138.84;1727971;83;21040;-74
2022/10/09 11:58:23;;;;;;;7.08;5.10;;;;;;;22.85;43.94;98135.21;1747209;82;21421;-75
2022/10/09 12:00:56;;;;;;;9.10;4.90;;;;;;;22.60;44.79;98138.47;1727770;83;21038;-74